Aeroporto :
LOGIN :

Iscrizione | Disclaimer

   EN    FR    IT 

 










Sommario :    VFR   VFR Marginale   IFR   IFR Intensivo   IFR Molto Intensivo
Visibilità : 
Base nubi : 
>= 8 km
>= 3000ft
5 / 8 km
1000 / 3000 ft
1500m / 5 km
500 / 1000 ft
800 / 1500m
200 / 500 ft
< 800m
< 200 ft
Simboli :   Temporali  Nebbia  Neve Forte  Precipitazioni Forti  Vento > 20 kt
SIGMETs :   Varie  Temporali  Ghiacco  Turbolenza  Onda orograficha  Ceneri Vulcaniche






- Altitudine del aeroporto : 13 ft
- Codice IATA : SNR


LFRZ - St-Nazaire

ULTIMO METAR :
  • 211630Z AUTO 31006KT 270V330 9999 -RA FEW021/// BKN048/// BKN072/// ///CB 08/06 Q0998 TEMPO 17015G25KT 4000 SHRA

METARs OBSOLETI :
  • 211600Z AUTO 18009KT 9999 2800 RA FEW021/// SCT035/// BKN049/// ///CB 09/08 Q0999 TEMPO 17015G25KT 4000 SHRA
  • 211530Z AUTO 15007KT 9999 3900 RA FEW035 SCT048 BKN056 09/08 Q0998 TEMPO 17015G25KT 4000 SHRA SCT012 BKN025CB
  • 211500Z AUTO 18005KT 9999 ///CB 09/08 Q0998 TEMPO 17015G25KT 4000 SHRA
  • 211430Z AUTO 21009KT 9999 -RA FEW010/// BKN035/// BKN046/// ///CB 09/07 Q0998 TEMPO 17015G25KT 4000 SHRA

TAF AMD TAF LFRZ
Valido dal 21 a 16 ore il 22 a 12 ore UTC


211618Z 2116/2212 14010KT 9999 BKN020
TEMPO 2116/2206 17015G25KT 4000 SHRA SCT012 BKN025CB
PROB40
TEMPO 2116/2124 18017G32KT
PROB30
TEMPO 2118/2124 4000 TSRA BKN016CB
BECMG 2208/2210 13015G25KT



MetMap, La meteo Aeronautica in un colpo d'occhio ! - Copyright ORBIFLY Dicembre 2007 - Disclaimer

ORBIFLY MET'MAP TEAM :

Programmazione e sviluppo : Alexandra Zaïnal
Concezione e sviluppo : Baudouin d'Aumeries
Co-Programmazione e sviluppo : Marc-Olivier Méhu
Supporto tecnico e logistico : Manuel Goepfert
Aiuto per la traduzione : Arnaldo La Scala

Contatto : metmap@orbifly.com




FONTI E CREDITI :

   NOAA